sensor_id;sensor_type;location;lat;lon;timestamp;P1;durP1;ratioP1;P2;durP2;ratioP2
12725;SDS011;6427;49.754;6.106;2022-08-02T00:00:25;12.40;;;4.17;;
12725;SDS011;6427;49.754;6.106;2022-08-02T00:02:52;12.77;;;5.50;;
12725;SDS011;6427;49.754;6.106;2022-08-02T00:05:20;11.50;;;3.40;;
12725;SDS011;6427;49.754;6.106;2022-08-02T00:07:47;15.63;;;3.23;;
12725;SDS011;6427;49.754;6.106;2022-08-02T00:10:15;31.90;;;3.63;;
12725;SDS011;6427;49.754;6.106;2022-08-02T00:12:43;21.83;;;4.22;;
12725;SDS011;6427;49.754;6.106;2022-08-02T00:15:10;18.00;;;4.27;;
12725;SDS011;6427;49.754;6.106;2022-08-02T00:17:38;11.80;;;3.83;;
12725;SDS011;6427;49.754;6.106;2022-08-02T00:20:06;34.10;;;4.13;;
12725;SDS011;6427;49.754;6.106;2022-08-02T00:22:34;17.70;;;5.30;;
12725;SDS011;6427;49.754;6.106;2022-08-02T00:25:02;22.70;;;4.87;;
12725;SDS011;6427;49.754;6.106;2022-08-02T00:27:29;25.15;;;5.60;;
12725;SDS011;6427;49.754;6.106;2022-08-02T00:29:56;19.57;;;5.57;;
12725;SDS011;6427;49.754;6.106;2022-08-02T00:32:24;30.57;;;4.93;;
12725;SDS011;6427;49.754;6.106;2022-08-02T00:34:52;33.38;;;5.85;;
12725;SDS011;6427;49.754;6.106;2022-08-02T00:37:20;32.27;;;5.67;;
12725;SDS011;6427;49.754;6.106;2022-08-02T00:39:48;27.83;;;5.43;;
12725;SDS011;6427;49.754;6.106;2022-08-02T00:42:15;32.93;;;5.93;;
12725;SDS011;6427;49.754;6.106;2022-08-02T00:44:43;27.00;;;5.87;;
12725;SDS011;6427;49.754;6.106;2022-08-02T00:47:10;29.13;;;5.53;;
12725;SDS011;6427;49.754;6.106;2022-08-02T00:49:39;30.97;;;5.83;;
12725;SDS011;6427;49.754;6.106;2022-08-02T00:52:06;25.30;;;6.07;;
12725;SDS011;6427;49.754;6.106;2022-08-02T00:54:34;37.83;;;5.10;;
12725;SDS011;6427;49.754;6.106;2022-08-02T00:57:03;14.53;;;4.60;;
12725;SDS011;6427;49.754;6.106;2022-08-02T00:59:30;10.93;;;4.00;;
12725;SDS011;6427;49.754;6.106;2022-08-02T01:01:59;12.77;;;3.97;;
12725;SDS011;6427;49.754;6.106;2022-08-02T01:04:26;11.50;;;4.00;;
12725;SDS011;6427;49.754;6.106;2022-08-02T01:06:54;17.45;;;5.20;;
12725;SDS011;6427;49.754;6.106;2022-08-02T01:09:23;39.30;;;5.27;;
12725;SDS011;6427;49.754;6.106;2022-08-02T01:11:50;10.80;;;4.70;;
12725;SDS011;6427;49.754;6.106;2022-08-02T01:14:19;16.23;;;5.25;;
12725;SDS011;6427;49.754;6.106;2022-08-02T01:16:51;33.50;;;5.20;;
12725;SDS011;6427;49.754;6.106;2022-08-02T01:27:32;12.83;;;4.97;;
12725;SDS011;6427;49.754;6.106;2022-08-02T01:30:14;21.02;;;6.03;;
12725;SDS011;6427;49.754;6.106;2022-08-02T01:32:44;14.10;;;5.50;;
12725;SDS011;6427;49.754;6.106;2022-08-02T01:35:12;9.57;;;5.17;;
12725;SDS011;6427;49.754;6.106;2022-08-02T01:37:42;12.47;;;5.53;;
12725;SDS011;6427;49.754;6.106;2022-08-02T01:40:25;10.03;;;5.43;;
12725;SDS011;6427;49.754;6.106;2022-08-02T01:42:45;7.97;;;4.73;;
12725;SDS011;6427;49.754;6.106;2022-08-02T01:45:11;12.52;;;6.85;;
12725;SDS011;6427;49.754;6.106;2022-08-02T01:47:39;10.50;;;5.70;;
12725;SDS011;6427;49.754;6.106;2022-08-02T01:50:07;13.63;;;5.60;;
12725;SDS011;6427;49.754;6.106;2022-08-02T01:52:36;12.27;;;5.47;;
12725;SDS011;6427;49.754;6.106;2022-08-02T01:55:06;35.03;;;5.77;;
12725;SDS011;6427;49.754;6.106;2022-08-02T01:57:49;29.37;;;5.57;;
12725;SDS011;6427;49.754;6.106;2022-08-02T02:00:13;38.50;;;5.70;;
12725;SDS011;6427;49.754;6.106;2022-08-02T02:02:41;30.03;;;5.73;;
12725;SDS011;6427;49.754;6.106;2022-08-02T02:05:12;32.37;;;5.47;;
12725;SDS011;6427;49.754;6.106;2022-08-02T02:07:39;17.40;;;5.40;;
12725;SDS011;6427;49.754;6.106;2022-08-02T02:10:07;29.60;;;5.40;;
12725;SDS011;6427;49.754;6.106;2022-08-02T02:12:35;39.50;;;5.73;;
12725;SDS011;6427;49.754;6.106;2022-08-02T02:15:02;23.98;;;6.75;;
12725;SDS011;6427;49.754;6.106;2022-08-02T02:17:30;27.77;;;5.67;;
12725;SDS011;6427;49.754;6.106;2022-08-02T02:19:58;10.23;;;4.27;;
12725;SDS011;6427;49.754;6.106;2022-08-02T02:22:26;8.20;;;4.87;;
12725;SDS011;6427;49.754;6.106;2022-08-02T02:24:54;27.25;;;6.18;;
12725;SDS011;6427;49.754;6.106;2022-08-02T02:27:22;20.63;;;5.20;;
12725;SDS011;6427;49.754;6.106;2022-08-02T02:29:50;15.23;;;4.90;;
12725;SDS011;6427;49.754;6.106;2022-08-02T02:32:18;21.40;;;5.17;;
12725;SDS011;6427;49.754;6.106;2022-08-02T02:34:45;57.33;;;5.50;;
12725;SDS011;6427;49.754;6.106;2022-08-02T02:37:16;57.67;;;6.27;;
12725;SDS011;6427;49.754;6.106;2022-08-02T02:39:47;59.17;;;6.00;;
12725;SDS011;6427;49.754;6.106;2022-08-02T02:42:15;25.07;;;5.13;;
12725;SDS011;6427;49.754;6.106;2022-08-02T02:44:42;15.03;;;4.83;;
12725;SDS011;6427;49.754;6.106;2022-08-02T02:47:10;31.73;;;5.90;;
12725;SDS011;6427;49.754;6.106;2022-08-02T02:49:37;29.17;;;6.03;;
12725;SDS011;6427;49.754;6.106;2022-08-02T02:52:05;24.20;;;6.30;;
12725;SDS011;6427;49.754;6.106;2022-08-02T02:54:33;41.53;;;7.07;;
12725;SDS011;6427;49.754;6.106;2022-08-02T02:57:01;17.20;;;5.83;;
12725;SDS011;6427;49.754;6.106;2022-08-02T02:59:29;23.57;;;6.33;;
12725;SDS011;6427;49.754;6.106;2022-08-02T03:01:57;20.00;;;6.60;;
12725;SDS011;6427;49.754;6.106;2022-08-02T03:04:26;64.47;;;7.97;;
12725;SDS011;6427;49.754;6.106;2022-08-02T03:06:52;69.87;;;7.57;;
12725;SDS011;6427;49.754;6.106;2022-08-02T03:09:21;13.20;;;4.97;;
12725;SDS011;6427;49.754;6.106;2022-08-02T03:11:48;15.67;;;5.20;;
12725;SDS011;6427;49.754;6.106;2022-08-02T03:14:16;22.90;;;5.33;;
12725;SDS011;6427;49.754;6.106;2022-08-02T03:16:48;9.40;;;5.00;;
12725;SDS011;6427;49.754;6.106;2022-08-02T03:19:15;4.50;;;3.93;;
12725;SDS011;6427;49.754;6.106;2022-08-02T03:21:44;6.07;;;4.60;;
12725;SDS011;6427;49.754;6.106;2022-08-02T03:24:12;5.13;;;4.40;;
12725;SDS011;6427;49.754;6.106;2022-08-02T03:26:40;4.20;;;3.63;;
12725;SDS011;6427;49.754;6.106;2022-08-02T03:29:08;7.40;;;5.03;;
12725;SDS011;6427;49.754;6.106;2022-08-02T03:31:35;15.33;;;5.00;;
12725;SDS011;6427;49.754;6.106;2022-08-02T03:34:03;16.00;;;6.43;;
12725;SDS011;6427;49.754;6.106;2022-08-02T03:36:32;20.70;;;6.40;;
12725;SDS011;6427;49.754;6.106;2022-08-02T03:38:59;7.80;;;5.20;;
12725;SDS011;6427;49.754;6.106;2022-08-02T03:41:27;5.50;;;4.90;;
12725;SDS011;6427;49.754;6.106;2022-08-02T03:43:55;6.75;;;6.05;;
12725;SDS011;6427;49.754;6.106;2022-08-02T03:46:23;8.80;;;6.63;;
12725;SDS011;6427;49.754;6.106;2022-08-02T03:48:51;7.37;;;5.77;;
12725;SDS011;6427;49.754;6.106;2022-08-02T03:51:18;9.67;;;7.07;;
12725;SDS011;6427;49.754;6.106;2022-08-02T03:53:46;10.67;;;6.87;;
12725;SDS011;6427;49.754;6.106;2022-08-02T03:56:13;8.17;;;6.60;;
12725;SDS011;6427;49.754;6.106;2022-08-02T03:58:41;7.70;;;5.20;;
12725;SDS011;6427;49.754;6.106;2022-08-02T04:01:09;7.33;;;5.23;;
12725;SDS011;6427;49.754;6.106;2022-08-02T04:03:37;6.33;;;5.00;;
12725;SDS011;6427;49.754;6.106;2022-08-02T04:06:05;6.67;;;5.50;;
12725;SDS011;6427;49.754;6.106;2022-08-02T04:08:33;6.57;;;5.03;;
12725;SDS011;6427;49.754;6.106;2022-08-02T04:11:01;7.00;;;6.30;;
12725;SDS011;6427;49.754;6.106;2022-08-02T04:13:46;8.00;;;6.50;;
12725;SDS011;6427;49.754;6.106;2022-08-02T04:16:21;6.53;;;5.07;;
12725;SDS011;6427;49.754;6.106;2022-08-02T04:18:55;6.03;;;4.80;;
12725;SDS011;6427;49.754;6.106;2022-08-02T04:21:24;6.93;;;4.60;;
12725;SDS011;6427;49.754;6.106;2022-08-02T04:23:51;5.37;;;4.10;;
12725;SDS011;6427;49.754;6.106;2022-08-02T04:26:19;4.30;;;3.90;;
12725;SDS011;6427;49.754;6.106;2022-08-02T04:28:47;5.95;;;4.80;;
12725;SDS011;6427;49.754;6.106;2022-08-02T04:31:18;5.40;;;4.90;;
12725;SDS011;6427;49.754;6.106;2022-08-02T04:33:46;6.13;;;4.73;;
12725;SDS011;6427;49.754;6.106;2022-08-02T04:36:14;6.33;;;4.50;;
12725;SDS011;6427;49.754;6.106;2022-08-02T04:38:41;6.43;;;5.15;;
12725;SDS011;6427;49.754;6.106;2022-08-02T04:41:10;5.87;;;4.93;;
12725;SDS011;6427;49.754;6.106;2022-08-02T04:43:37;5.63;;;4.67;;
12725;SDS011;6427;49.754;6.106;2022-08-02T04:46:05;6.33;;;4.60;;
12725;SDS011;6427;49.754;6.106;2022-08-02T04:48:33;5.43;;;4.77;;
12725;SDS011;6427;49.754;6.106;2022-08-02T04:51:01;5.50;;;4.53;;
12725;SDS011;6427;49.754;6.106;2022-08-02T04:53:29;5.23;;;4.43;;
12725;SDS011;6427;49.754;6.106;2022-08-02T04:55:56;6.50;;;5.43;;
12725;SDS011;6427;49.754;6.106;2022-08-02T04:58:24;7.25;;;5.47;;
12725;SDS011;6427;49.754;6.106;2022-08-02T05:00:51;4.97;;;4.20;;
12725;SDS011;6427;49.754;6.106;2022-08-02T05:03:19;5.57;;;4.93;;
12725;SDS011;6427;49.754;6.106;2022-08-02T05:05:47;5.37;;;4.50;;
12725;SDS011;6427;49.754;6.106;2022-08-02T05:08:14;6.30;;;4.20;;
12725;SDS011;6427;49.754;6.106;2022-08-02T05:10:42;4.57;;;4.13;;
12725;SDS011;6427;49.754;6.106;2022-08-02T05:13:09;5.63;;;5.03;;
12725;SDS011;6427;49.754;6.106;2022-08-02T05:15:37;6.60;;;5.90;;
12725;SDS011;6427;49.754;6.106;2022-08-02T05:18:04;8.23;;;6.40;;
12725;SDS011;6427;49.754;6.106;2022-08-02T05:20:33;8.23;;;6.47;;
12725;SDS011;6427;49.754;6.106;2022-08-02T05:23:00;10.23;;;6.90;;
12725;SDS011;6427;49.754;6.106;2022-08-02T05:25:28;7.37;;;6.60;;
12725;SDS011;6427;49.754;6.106;2022-08-02T05:27:57;7.80;;;7.00;;
12725;SDS011;6427;49.754;6.106;2022-08-02T05:30:24;8.60;;;7.17;;
12725;SDS011;6427;49.754;6.106;2022-08-02T05:32:52;8.37;;;6.77;;
12725;SDS011;6427;49.754;6.106;2022-08-02T05:35:20;9.37;;;7.33;;
12725;SDS011;6427;49.754;6.106;2022-08-02T05:37:48;8.57;;;7.72;;
12725;SDS011;6427;49.754;6.106;2022-08-02T05:40:16;7.70;;;7.00;;
12725;SDS011;6427;49.754;6.106;2022-08-02T05:42:43;9.77;;;8.80;;
12725;SDS011;6427;49.754;6.106;2022-08-02T05:45:11;8.20;;;7.40;;
12725;SDS011;6427;49.754;6.106;2022-08-02T05:47:38;8.07;;;7.27;;
12725;SDS011;6427;49.754;6.106;2022-08-02T05:51:39;10.55;;;8.38;;
12725;SDS011;6427;49.754;6.106;2022-08-02T05:54:19;9.03;;;8.10;;
12725;SDS011;6427;49.754;6.106;2022-08-02T05:56:50;7.03;;;6.33;;
12725;SDS011;6427;49.754;6.106;2022-08-02T06:01:55;7.27;;;6.53;;
12725;SDS011;6427;49.754;6.106;2022-08-02T06:04:25;8.55;;;7.75;;
12725;SDS011;6427;49.754;6.106;2022-08-02T06:06:54;8.87;;;7.23;;
12725;SDS011;6427;49.754;6.106;2022-08-02T06:09:19;8.20;;;6.77;;
12725;SDS011;6427;49.754;6.106;2022-08-02T06:11:48;8.07;;;7.00;;
12725;SDS011;6427;49.754;6.106;2022-08-02T06:14:14;8.43;;;7.62;;
12725;SDS011;6427;49.754;6.106;2022-08-02T06:16:42;9.10;;;7.37;;
12725;SDS011;6427;49.754;6.106;2022-08-02T06:19:12;8.03;;;6.77;;
12725;SDS011;6427;49.754;6.106;2022-08-02T06:21:41;9.23;;;7.43;;
12725;SDS011;6427;49.754;6.106;2022-08-02T06:24:09;9.60;;;7.30;;
12725;SDS011;6427;49.754;6.106;2022-08-02T06:26:37;9.50;;;7.77;;
12725;SDS011;6427;49.754;6.106;2022-08-02T06:29:04;9.77;;;7.90;;
12725;SDS011;6427;49.754;6.106;2022-08-02T06:31:32;9.13;;;7.85;;
12725;SDS011;6427;49.754;6.106;2022-08-02T06:34:00;7.80;;;7.10;;
12725;SDS011;6427;49.754;6.106;2022-08-02T06:36:31;8.30;;;7.50;;
12725;SDS011;6427;49.754;6.106;2022-08-02T06:39:10;9.80;;;7.00;;
12725;SDS011;6427;49.754;6.106;2022-08-02T06:41:41;8.30;;;7.20;;
12725;SDS011;6427;49.754;6.106;2022-08-02T06:44:09;9.33;;;6.67;;
12725;SDS011;6427;49.754;6.106;2022-08-02T06:46:37;7.10;;;6.40;;
12725;SDS011;6427;49.754;6.106;2022-08-02T06:49:05;7.73;;;6.57;;
12725;SDS011;6427;49.754;6.106;2022-08-02T06:51:32;7.20;;;6.50;;
12725;SDS011;6427;49.754;6.106;2022-08-02T06:54:00;7.97;;;7.17;;
12725;SDS011;6427;49.754;6.106;2022-08-02T06:56:27;7.63;;;6.83;;
12725;SDS011;6427;49.754;6.106;2022-08-02T06:58:55;7.33;;;6.63;;
12725;SDS011;6427;49.754;6.106;2022-08-02T07:01:23;8.53;;;7.63;;
12725;SDS011;6427;49.754;6.106;2022-08-02T07:03:50;8.27;;;7.47;;
12725;SDS011;6427;49.754;6.106;2022-08-02T07:06:18;8.60;;;6.87;;
12725;SDS011;6427;49.754;6.106;2022-08-02T07:08:46;7.87;;;7.07;;
12725;SDS011;6427;49.754;6.106;2022-08-02T07:11:14;7.60;;;6.33;;
12725;SDS011;6427;49.754;6.106;2022-08-02T07:13:43;8.85;;;7.75;;
12725;SDS011;6427;49.754;6.106;2022-08-02T07:16:11;9.67;;;7.27;;
12725;SDS011;6427;49.754;6.106;2022-08-02T07:18:39;9.07;;;7.20;;
12725;SDS011;6427;49.754;6.106;2022-08-02T07:21:06;9.83;;;7.30;;
12725;SDS011;6427;49.754;6.106;2022-08-02T07:23:34;9.00;;;6.97;;
12725;SDS011;6427;49.754;6.106;2022-08-02T07:26:02;7.47;;;6.70;;
12725;SDS011;6427;49.754;6.106;2022-08-02T07:28:29;9.30;;;7.47;;
12725;SDS011;6427;49.754;6.106;2022-08-02T07:30:57;7.37;;;6.67;;
12725;SDS011;6427;49.754;6.106;2022-08-02T07:33:24;8.67;;;7.70;;
12725;SDS011;6427;49.754;6.106;2022-08-02T07:35:52;9.02;;;7.80;;
12725;SDS011;6427;49.754;6.106;2022-08-02T07:38:20;11.20;;;8.07;;
12725;SDS011;6427;49.754;6.106;2022-08-02T07:40:47;10.63;;;9.53;;
12725;SDS011;6427;49.754;6.106;2022-08-02T07:43:15;9.40;;;8.50;;
12725;SDS011;6427;49.754;6.106;2022-08-02T07:45:42;10.63;;;8.40;;
12725;SDS011;6427;49.754;6.106;2022-08-02T07:48:10;14.33;;;9.47;;
12725;SDS011;6427;49.754;6.106;2022-08-02T07:50:38;10.10;;;8.20;;
12725;SDS011;6427;49.754;6.106;2022-08-02T07:53:05;9.47;;;8.43;;
12725;SDS011;6427;49.754;6.106;2022-08-02T07:55:33;8.98;;;8.07;;
12725;SDS011;6427;49.754;6.106;2022-08-02T07:58:03;11.77;;;8.00;;
12725;SDS011;6427;49.754;6.106;2022-08-02T08:00:29;10.77;;;8.23;;
12725;SDS011;6427;49.754;6.106;2022-08-02T08:02:57;9.40;;;8.50;;
12725;SDS011;6427;49.754;6.106;2022-08-02T08:05:25;14.50;;;8.40;;
12725;SDS011;6427;49.754;6.106;2022-08-02T08:07:52;11.53;;;8.20;;
12725;SDS011;6427;49.754;6.106;2022-08-02T08:10:20;11.77;;;8.57;;
12725;SDS011;6427;49.754;6.106;2022-08-02T08:12:48;8.37;;;7.40;;
12725;SDS011;6427;49.754;6.106;2022-08-02T08:15:15;9.23;;;7.80;;
12725;SDS011;6427;49.754;6.106;2022-08-02T08:17:43;11.33;;;8.53;;
12725;SDS011;6427;49.754;6.106;2022-08-02T08:20:10;9.10;;;8.13;;
12725;SDS011;6427;49.754;6.106;2022-08-02T08:22:38;8.93;;;7.73;;
12725;SDS011;6427;49.754;6.106;2022-08-02T08:25:06;15.30;;;7.97;;
12725;SDS011;6427;49.754;6.106;2022-08-02T08:27:34;8.45;;;7.65;;
12725;SDS011;6427;49.754;6.106;2022-08-02T08:30:02;7.77;;;7.00;;
12725;SDS011;6427;49.754;6.106;2022-08-02T08:32:29;8.20;;;7.07;;
12725;SDS011;6427;49.754;6.106;2022-08-02T08:34:57;10.27;;;8.13;;
12725;SDS011;6427;49.754;6.106;2022-08-02T08:37:25;7.80;;;7.00;;
12725;SDS011;6427;49.754;6.106;2022-08-02T08:39:52;9.57;;;6.90;;
12725;SDS011;6427;49.754;6.106;2022-08-02T08:42:20;8.03;;;7.00;;
12725;SDS011;6427;49.754;6.106;2022-08-02T08:44:48;10.87;;;6.90;;
12725;SDS011;6427;49.754;6.106;2022-08-02T08:47:16;8.38;;;7.32;;
12725;SDS011;6427;49.754;6.106;2022-08-02T08:49:44;8.13;;;6.13;;
12725;SDS011;6427;49.754;6.106;2022-08-02T08:52:12;10.10;;;6.83;;
12725;SDS011;6427;49.754;6.106;2022-08-02T08:54:39;7.28;;;6.50;;
12725;SDS011;6427;49.754;6.106;2022-08-02T08:57:07;8.77;;;5.20;;
12725;SDS011;6427;49.754;6.106;2022-08-02T08:59:35;10.90;;;6.63;;
12725;SDS011;6427;49.754;6.106;2022-08-02T09:02:03;7.10;;;6.40;;
12725;SDS011;6427;49.754;6.106;2022-08-02T09:04:31;7.10;;;6.00;;
12725;SDS011;6427;49.754;6.106;2022-08-02T09:06:58;9.40;;;5.90;;
12725;SDS011;6427;49.754;6.106;2022-08-02T09:09:26;7.90;;;5.50;;
12725;SDS011;6427;49.754;6.106;2022-08-02T09:11:55;9.97;;;5.20;;
12725;SDS011;6427;49.754;6.106;2022-08-02T09:14:26;7.50;;;5.00;;
12725;SDS011;6427;49.754;6.106;2022-08-02T09:16:53;5.93;;;5.43;;
12725;SDS011;6427;49.754;6.106;2022-08-02T09:19:22;5.27;;;4.77;;
12725;SDS011;6427;49.754;6.106;2022-08-02T09:21:59;7.93;;;4.33;;
12725;SDS011;6427;49.754;6.106;2022-08-02T09:24:19;6.28;;;4.37;;
12725;SDS011;6427;49.754;6.106;2022-08-02T09:26:48;5.30;;;3.87;;
12725;SDS011;6427;49.754;6.106;2022-08-02T09:29:15;8.33;;;3.50;;
12725;SDS011;6427;49.754;6.106;2022-08-02T09:31:43;5.62;;;3.75;;
12725;SDS011;6427;49.754;6.106;2022-08-02T09:34:11;6.30;;;4.50;;
12725;SDS011;6427;49.754;6.106;2022-08-02T09:36:40;7.20;;;3.50;;
12725;SDS011;6427;49.754;6.106;2022-08-02T09:39:11;4.00;;;3.60;;
12725;SDS011;6427;49.754;6.106;2022-08-02T09:41:41;4.63;;;3.40;;
12725;SDS011;6427;49.754;6.106;2022-08-02T09:44:11;3.13;;;2.93;;
12725;SDS011;6427;49.754;6.106;2022-08-02T09:46:39;3.30;;;3.00;;
12725;SDS011;6427;49.754;6.106;2022-08-02T09:49:09;4.40;;;3.47;;
12725;SDS011;6427;49.754;6.106;2022-08-02T09:51:47;3.40;;;3.10;;
12725;SDS011;6427;49.754;6.106;2022-08-02T09:54:08;5.83;;;3.63;;
12725;SDS011;6427;49.754;6.106;2022-08-02T09:56:42;4.20;;;3.27;;
12725;SDS011;6427;49.754;6.106;2022-08-02T09:59:12;3.23;;;2.90;;
12725;SDS011;6427;49.754;6.106;2022-08-02T10:01:40;3.27;;;3.07;;
12725;SDS011;6427;49.754;6.106;2022-08-02T10:04:09;4.13;;;3.20;;
12725;SDS011;6427;49.754;6.106;2022-08-02T10:06:35;4.80;;;3.10;;
12725;SDS011;6427;49.754;6.106;2022-08-02T10:09:03;3.30;;;3.00;;
12725;SDS011;6427;49.754;6.106;2022-08-02T10:11:31;3.07;;;2.50;;
12725;SDS011;6427;49.754;6.106;2022-08-02T10:13:58;3.93;;;2.80;;
12725;SDS011;6427;49.754;6.106;2022-08-02T10:16:27;4.97;;;2.70;;
12725;SDS011;6427;49.754;6.106;2022-08-02T10:18:55;4.07;;;2.63;;
12725;SDS011;6427;49.754;6.106;2022-08-02T10:21:25;4.30;;;3.50;;
12725;SDS011;6427;49.754;6.106;2022-08-02T10:23:50;4.80;;;2.97;;
12725;SDS011;6427;49.754;6.106;2022-08-02T10:26:19;2.97;;;2.77;;
12725;SDS011;6427;49.754;6.106;2022-08-02T10:28:47;5.67;;;3.20;;
12725;SDS011;6427;49.754;6.106;2022-08-02T10:31:16;4.13;;;3.03;;
12725;SDS011;6427;49.754;6.106;2022-08-02T10:33:45;2.80;;;2.50;;
12725;SDS011;6427;49.754;6.106;2022-08-02T10:36:12;2.93;;;2.33;;
12725;SDS011;6427;49.754;6.106;2022-08-02T10:38:40;4.37;;;2.60;;
12725;SDS011;6427;49.754;6.106;2022-08-02T10:41:08;6.43;;;2.30;;
12725;SDS011;6427;49.754;6.106;2022-08-02T10:43:40;2.60;;;2.40;;
12725;SDS011;6427;49.754;6.106;2022-08-02T10:54:22;4.00;;;2.30;;
12725;SDS011;6427;49.754;6.106;2022-08-02T10:56:50;2.47;;;1.90;;
12725;SDS011;6427;49.754;6.106;2022-08-02T10:59:34;2.27;;;1.80;;
12725;SDS011;6427;49.754;6.106;2022-08-02T11:07:09;2.67;;;2.27;;
12725;SDS011;6427;49.754;6.106;2022-08-02T11:09:35;2.00;;;1.80;;
12725;SDS011;6427;49.754;6.106;2022-08-02T11:12:03;1.90;;;1.80;;
12725;SDS011;6427;49.754;6.106;2022-08-02T11:14:34;2.13;;;1.80;;
12725;SDS011;6427;49.754;6.106;2022-08-02T11:19:32;4.87;;;2.20;;
12725;SDS011;6427;49.754;6.106;2022-08-02T11:24:34;3.00;;;2.00;;
12725;SDS011;6427;49.754;6.106;2022-08-02T11:27:05;4.60;;;1.90;;
12725;SDS011;6427;49.754;6.106;2022-08-02T11:29:42;4.37;;;1.77;;
12725;SDS011;6427;49.754;6.106;2022-08-02T11:32:07;1.80;;;1.70;;
12725;SDS011;6427;49.754;6.106;2022-08-02T11:34:46;2.40;;;1.40;;
12725;SDS011;6427;49.754;6.106;2022-08-02T11:37:26;3.13;;;1.90;;
12725;SDS011;6427;49.754;6.106;2022-08-02T11:39:53;1.70;;;1.60;;
12725;SDS011;6427;49.754;6.106;2022-08-02T11:42:20;3.23;;;1.40;;
12725;SDS011;6427;49.754;6.106;2022-08-02T11:44:49;1.70;;;1.60;;
12725;SDS011;6427;49.754;6.106;2022-08-02T11:47:16;1.70;;;1.60;;
12725;SDS011;6427;49.754;6.106;2022-08-02T11:49:44;1.90;;;1.50;;
12725;SDS011;6427;49.754;6.106;2022-08-02T11:52:12;3.20;;;1.67;;
12725;SDS011;6427;49.754;6.106;2022-08-02T11:54:40;1.90;;;1.60;;
12725;SDS011;6427;49.754;6.106;2022-08-02T11:57:10;3.23;;;1.93;;
12725;SDS011;6427;49.754;6.106;2022-08-02T11:59:41;1.80;;;1.70;;
12725;SDS011;6427;49.754;6.106;2022-08-02T12:02:08;1.67;;;1.50;;
12725;SDS011;6427;49.754;6.106;2022-08-02T12:04:36;1.50;;;1.40;;
12725;SDS011;6427;49.754;6.106;2022-08-02T12:07:04;2.17;;;1.60;;
12725;SDS011;6427;49.754;6.106;2022-08-02T12:09:32;1.50;;;1.40;;
12725;SDS011;6427;49.754;6.106;2022-08-02T12:11:59;2.30;;;1.43;;
12725;SDS011;6427;49.754;6.106;2022-08-02T12:14:27;2.60;;;1.27;;
12725;SDS011;6427;49.754;6.106;2022-08-02T12:16:55;2.60;;;1.63;;
12725;SDS011;6427;49.754;6.106;2022-08-02T12:19:41;1.70;;;1.60;;
12725;SDS011;6427;49.754;6.106;2022-08-02T12:22:16;1.70;;;1.60;;
12725;SDS011;6427;49.754;6.106;2022-08-02T12:24:49;2.00;;;1.50;;
12725;SDS011;6427;49.754;6.106;2022-08-02T12:27:35;1.47;;;1.37;;
12725;SDS011;6427;49.754;6.106;2022-08-02T12:30:06;1.90;;;1.37;;
12725;SDS011;6427;49.754;6.106;2022-08-02T12:32:33;1.87;;;1.43;;
12725;SDS011;6427;49.754;6.106;2022-08-02T12:35:02;2.73;;;1.50;;
12725;SDS011;6427;49.754;6.106;2022-08-02T12:37:28;1.53;;;1.43;;
12725;SDS011;6427;49.754;6.106;2022-08-02T12:39:56;2.43;;;1.60;;
12725;SDS011;6427;49.754;6.106;2022-08-02T12:42:23;1.60;;;1.50;;
12725;SDS011;6427;49.754;6.106;2022-08-02T12:44:53;1.40;;;1.30;;
12725;SDS011;6427;49.754;6.106;2022-08-02T12:47:19;1.70;;;1.30;;
12725;SDS011;6427;49.754;6.106;2022-08-02T12:50:09;2.63;;;1.50;;
12725;SDS011;6427;49.754;6.106;2022-08-02T12:52:19;1.50;;;1.40;;
12725;SDS011;6427;49.754;6.106;2022-08-02T12:54:48;2.43;;;1.33;;
12725;SDS011;6427;49.754;6.106;2022-08-02T12:57:16;1.50;;;1.40;;
12725;SDS011;6427;49.754;6.106;2022-08-02T12:59:48;1.65;;;1.50;;
12725;SDS011;6427;49.754;6.106;2022-08-02T13:02:11;1.60;;;1.47;;
12725;SDS011;6427;49.754;6.106;2022-08-02T13:04:39;1.67;;;1.57;;
12725;SDS011;6427;49.754;6.106;2022-08-02T13:07:06;1.37;;;1.27;;
12725;SDS011;6427;49.754;6.106;2022-08-02T13:09:38;1.57;;;1.13;;
12725;SDS011;6427;49.754;6.106;2022-08-02T13:12:02;1.60;;;1.50;;
12725;SDS011;6427;49.754;6.106;2022-08-02T13:14:30;2.77;;;1.30;;
12725;SDS011;6427;49.754;6.106;2022-08-02T13:16:57;1.97;;;1.50;;
12725;SDS011;6427;49.754;6.106;2022-08-02T13:19:25;2.17;;;1.33;;
12725;SDS011;6427;49.754;6.106;2022-08-02T13:21:52;1.50;;;1.33;;
12725;SDS011;6427;49.754;6.106;2022-08-02T13:24:21;2.13;;;1.30;;
12725;SDS011;6427;49.754;6.106;2022-08-02T13:26:48;2.93;;;1.40;;
12725;SDS011;6427;49.754;6.106;2022-08-02T13:29:17;1.40;;;1.10;;
12725;SDS011;6427;49.754;6.106;2022-08-02T13:31:45;2.23;;;1.20;;
12725;SDS011;6427;49.754;6.106;2022-08-02T13:34:12;1.10;;;1.10;;
12725;SDS011;6427;49.754;6.106;2022-08-02T13:36:41;2.30;;;1.20;;
12725;SDS011;6427;49.754;6.106;2022-08-02T13:39:09;1.20;;;1.10;;
12725;SDS011;6427;49.754;6.106;2022-08-02T13:41:37;1.37;;;1.23;;
12725;SDS011;6427;49.754;6.106;2022-08-02T13:44:04;2.63;;;1.40;;
12725;SDS011;6427;49.754;6.106;2022-08-02T13:46:33;1.30;;;1.20;;
12725;SDS011;6427;49.754;6.106;2022-08-02T13:49:01;1.12;;;1.10;;
12725;SDS011;6427;49.754;6.106;2022-08-02T13:51:28;1.63;;;1.23;;
12725;SDS011;6427;49.754;6.106;2022-08-02T13:53:56;1.30;;;1.10;;
12725;SDS011;6427;49.754;6.106;2022-08-02T13:56:23;2.70;;;1.10;;
12725;SDS011;6427;49.754;6.106;2022-08-02T13:58:51;2.00;;;1.20;;
12725;SDS011;6427;49.754;6.106;2022-08-02T14:01:18;1.30;;;1.20;;
12725;SDS011;6427;49.754;6.106;2022-08-02T14:03:46;2.00;;;1.30;;
12725;SDS011;6427;49.754;6.106;2022-08-02T14:06:14;0.90;;;0.90;;
12725;SDS011;6427;49.754;6.106;2022-08-02T14:08:42;1.20;;;1.00;;
12725;SDS011;6427;49.754;6.106;2022-08-02T14:11:10;3.00;;;1.00;;
12725;SDS011;6427;49.754;6.106;2022-08-02T14:13:38;1.87;;;1.10;;
12725;SDS011;6427;49.754;6.106;2022-08-02T14:16:06;1.73;;;1.00;;
12725;SDS011;6427;49.754;6.106;2022-08-02T14:18:34;4.60;;;1.27;;
12725;SDS011;6427;49.754;6.106;2022-08-02T14:21:02;1.13;;;1.00;;
12725;SDS011;6427;49.754;6.106;2022-08-02T14:23:29;1.57;;;1.07;;
12725;SDS011;6427;49.754;6.106;2022-08-02T14:25:57;2.10;;;1.13;;
12725;SDS011;6427;49.754;6.106;2022-08-02T14:28:24;1.27;;;0.90;;
12725;SDS011;6427;49.754;6.106;2022-08-02T14:30:52;1.40;;;1.08;;
12725;SDS011;6427;49.754;6.106;2022-08-02T14:33:21;1.30;;;1.20;;
12725;SDS011;6427;49.754;6.106;2022-08-02T14:35:48;1.20;;;1.17;;
12725;SDS011;6427;49.754;6.106;2022-08-02T14:38:16;1.35;;;1.10;;
12725;SDS011;6427;49.754;6.106;2022-08-02T14:40:46;2.50;;;1.03;;
12725;SDS011;6427;49.754;6.106;2022-08-02T14:43:14;1.07;;;0.80;;
12725;SDS011;6427;49.754;6.106;2022-08-02T14:45:42;2.23;;;1.13;;
12725;SDS011;6427;49.754;6.106;2022-08-02T14:48:10;1.30;;;1.20;;
12725;SDS011;6427;49.754;6.106;2022-08-02T14:50:38;1.65;;;1.10;;
12725;SDS011;6427;49.754;6.106;2022-08-02T14:53:07;1.83;;;1.00;;
12725;SDS011;6427;49.754;6.106;2022-08-02T14:55:34;1.13;;;1.03;;
12725;SDS011;6427;49.754;6.106;2022-08-02T14:58:02;1.20;;;1.10;;
12725;SDS011;6427;49.754;6.106;2022-08-02T15:00:30;2.10;;;0.87;;
12725;SDS011;6427;49.754;6.106;2022-08-02T15:02:58;1.00;;;1.00;;
12725;SDS011;6427;49.754;6.106;2022-08-02T15:05:25;2.60;;;1.10;;
12725;SDS011;6427;49.754;6.106;2022-08-02T15:07:53;1.90;;;1.20;;
12725;SDS011;6427;49.754;6.106;2022-08-02T15:10:21;2.20;;;1.20;;
12725;SDS011;6427;49.754;6.106;2022-08-02T15:12:48;0.90;;;0.90;;
12725;SDS011;6427;49.754;6.106;2022-08-02T15:15:16;1.37;;;1.10;;
12725;SDS011;6427;49.754;6.106;2022-08-02T15:17:43;4.90;;;1.00;;
12725;SDS011;6427;49.754;6.106;2022-08-02T15:20:11;1.17;;;0.93;;
12725;SDS011;6427;49.754;6.106;2022-08-02T15:22:39;4.47;;;1.00;;
12725;SDS011;6427;49.754;6.106;2022-08-02T15:25:06;1.07;;;0.97;;
12725;SDS011;6427;49.754;6.106;2022-08-02T15:27:34;2.40;;;1.07;;
12725;SDS011;6427;49.754;6.106;2022-08-02T15:30:02;2.10;;;0.87;;
12725;SDS011;6427;49.754;6.106;2022-08-02T15:32:30;3.13;;;1.00;;
12725;SDS011;6427;49.754;6.106;2022-08-02T15:34:57;4.57;;;1.07;;